Latest Weather Observations for Ngayawili (Elcho Island)

IDD60801

Issued at 2:31 am CST Saturday 28 February 2015 (issued every 30 minutes, with the page automatically refreshed every 10 minutes)

About weather observations | Map of weather stations | Latest weather observations for NT | Other Formats
Station Details ID: 014517 Name: NGAYAWILI Lat: -12.00 Lon: 135.57 Height: 8.1 m
Data from the previous 72 hours. | See also: Recent months at Ngayawili (Elcho Island)
Date/Time
CST
Temp
°C
App
Temp
°C
Dew
Point
Rel
Hum
%
Delta-T
°C
Wind Press
QNH
hPa
Press
MSL
hPa
Rain
since 9 am
mm
Dir
 
Spd
km/h
Gust
km/h
Spd
kts
Gust
kts
28/02:30am 27.5 - - - - WSW 20 24 11 13 - - 21.6
28/02:00am 27.4 - - - - WSW 17 20 9 11 - - 21.6
28/01:30am 27.3 - - - - WSW 19 22 10 12 - - 21.6
28/01:00am 27.4 - - - - WSW 17 20 9 11 - - 21.6
28/12:30am 27.3 - - - - WSW 15 19 8 10 - - 21.6
28/12:00am 26.5 - - - - WSW 11 15 6 8 - - 21.6
 
Date/Time
CST
Temp
°C
App
Temp
°C
Dew
Point
Rel
Hum
%
Delta-T
°C
Wind Press
QNH
hPa
Press
MSL
hPa
Rain
since 9 am
mm
Dir
 
Spd
km/h
Gust
km/h
Spd
kts
Gust
kts
27/11:30pm 26.0 - - - - WSW 11 13 6 7 - - 21.6
27/11:00pm 25.9 - - - - WSW 11 15 6 8 - - 21.6
27/10:30pm 24.6 - - - - SW 13 17 7 9 - - 21.6
27/10:00pm 24.0 - - - - SW 19 24 10 13 - - 21.6
27/09:30pm 24.4 - - - - S 17 26 9 14 - - 21.6
27/09:00pm 26.3 - - - - S 24 48 13 26 - - 11.0
27/08:51pm 26.3 - - - - WSW 24 43 13 23 - - 3.6
27/08:30pm 24.5 - - - - W 13 20 7 11 - - 0.2
27/08:00pm 24.8 - - - - W 19 30 10 16 - - 0.0
27/07:30pm 28.8 - - - - SSW 19 22 10 12 - - 0.0
27/07:00pm 28.9 - - - - SSW 30 35 16 19 - - 0.0
27/06:30pm 29.2 - - - - SSW 30 37 16 20 - - 0.0
27/06:00pm 29.3 - - - - SSW 32 39 17 21 - - 0.0
27/05:30pm 29.5 - - - - SSW 35 43 19 23 - - 0.0
27/05:00pm 29.9 - - - - SSW 35 39 19 21 - - 0.0
27/04:30pm 30.3 - - - - SSW 30 35 16 19 - - 0.0
27/04:00pm 30.6 - - - - SSW 32 37 17 20 - - 0.0
27/03:30pm 30.5 - - - - SSW 30 33 16 18 - - 0.0
27/03:00pm 31.0 - - - - SSW 30 35 16 19 - - 0.0
27/02:30pm 30.9 - - - - SSW 32 35 17 19 - - 0.0
27/02:00pm 30.3 - - - - SW 28 32 15 17 - - 0.0
27/01:30pm 30.4 - - - - WSW 24 28 13 15 - - 0.0
27/01:00pm 29.9 - - - - WSW 22 26 12 14 - - 0.0
27/12:30pm 30.5 - - - - WSW 22 26 12 14 - - 0.0
27/12:00pm 30.2 - - - - WSW 22 24 12 13 - - 0.0
27/11:30am 30.6 - - - - WSW 20 24 11 13 - - 0.0
27/11:00am 30.3 - - - - WSW 17 20 9 11 - - 0.0
27/10:30am 29.8 - - - - WSW 17 19 9 10 - - 0.0
27/10:00am 29.5 - - - - WSW 19 22 10 12 - - 0.0
27/09:30am 29.0 - - - - WSW 15 17 8 9 - - 0.0
27/09:00am 28.5 - - - - WSW 15 19 8 10 - - 0.6
27/08:30am 28.0 - - - - WSW 11 15 6 8 - - 0.6
27/08:00am 27.6 - - - - WSW 15 19 8 10 - - 0.6
27/07:30am 27.2 - - - - WSW 19 22 10 12 - - 0.6
27/07:00am 27.1 - - - - WSW 19 22 10 12 - - 0.6
27/06:30am 27.0 - - - - WSW 19 20 10 11 - - 0.6
27/06:00am 27.1 - - - - WSW 20 24 11 13 - - 0.6
27/05:30am 26.5 - - - - WSW 9 17 5 9 - - 0.6
27/05:00am 26.2 - - - - WSW 9 11 5 6 - - 0.6
27/04:30am 26.5 - - - - WSW 11 13 6 7 - - 0.6
27/04:00am 26.6 - - - - WSW 13 17 7 9 - - 0.6
27/03:30am 26.8 - - - - WSW 19 26 10 14 - - 0.6
27/03:00am 27.7 - - - - SW 17 22 9 12 - - 0.6
27/02:30am 27.7 - - - - SW 15 17 8 9 - - 0.6
27/02:00am 26.7 - - - - SW 17 20 9 11 - - 0.6
27/01:30am 27.3 - - - - SSW 26 32 14 17 - - 0.6
27/01:00am 28.2 - - - - W 19 24 10 13 - - 0.6
27/12:30am 27.9 - - - - W 13 15 7 8 - - 0.6
27/12:00am 27.8 - - - - W 15 19 8 10 - - 0.6
 
Date/Time
CST
Temp
°C
App
Temp
°C
Dew
Point
Rel
Hum
%
Delta-T
°C
Wind Press
QNH
hPa
Press
MSL
hPa
Rain
since 9 am
mm
Dir
 
Spd
km/h
Gust
km/h
Spd
kts
Gust
kts
26/11:30pm 27.6 - - - - W 11 13 6 7 - - 0.6
26/11:00pm 26.5 - - - - CALM 0 0 0 0 - - 0.6
26/10:30pm 26.4 - - - - CALM 0 0 0 0 - - 0.6
26/10:00pm 26.3 - - - - CALM 0 0 0 0 - - 0.6
26/09:30pm 26.4 - - - - W 9 11 5 6 - - 0.6
26/09:00pm 26.5 - - - - W 11 13 6 7 - - 0.6
26/08:30pm 26.9 - - - - W 9 13 5 7 - - 0.6
26/08:00pm 28.5 - - - - W 6 7 3 4 - - 0.6
26/07:30pm 28.6 - - - - W 9 13 5 7 - - 0.6
26/07:00pm 28.7 - - - - W 19 20 10 11 - - 0.6
26/06:30pm 28.6 - - - - W 19 20 10 11 - - 0.6
26/06:00pm 29.0 - - - - W 19 22 10 12 - - 0.6
26/05:30pm 29.8 - - - - W 19 20 10 11 - - 0.6
26/05:00pm 29.8 - - - - W 9 11 5 6 - - 0.6
26/04:30pm 30.0 - - - - W 9 13 5 7 - - 0.6
26/04:00pm 29.6 - - - - W 15 19 8 10 - - 0.6
26/03:30pm 29.4 - - - - W 17 19 9 10 - - 0.6
26/03:00pm 29.7 - - - - W 11 15 6 8 - - 0.6
26/02:30pm 29.6 - - - - W 13 17 7 9 - - 0.6
26/02:00pm 29.6 - - - - W 11 13 6 7 - - 0.6
26/01:30pm 29.4 - - - - W 17 19 9 10 - - 0.6
26/01:00pm 30.0 - - - - W 7 13 4 7 - - 0.6
26/12:30pm 28.6 - - - - W 9 15 5 8 - - 0.6
26/12:00pm 27.2 - - - - W 15 22 8 12 - - 0.6
26/11:30am 25.6 - - - - W 24 39 13 21 - - 0.6
26/11:00am 23.8 - - - - WNW 35 56 19 30 - - 0.4
26/10:54am 24.1 - - - - WNW 35 56 19 30 - - 0.0
26/10:40am 27.8 - - - - WSW 17 48 9 26 - - 0.0
26/10:30am 30.3 - - - - WSW 13 17 7 9 - - 0.0
26/10:00am 30.1 - - - - WSW 13 15 7 8 - - 0.0
26/09:30am 29.9 - - - - WSW 11 15 6 8 - - 0.0
26/09:00am 29.3 - - - - WSW 15 17 8 9 - - 0.0
26/08:30am 29.2 - - - - SW 19 20 10 11 - - 0.0
26/08:00am 28.9 - - - - SW 19 22 10 12 - - 0.0
26/07:30am 28.6 - - - - SW 17 20 9 11 - - 0.0
26/07:00am 28.4 - - - - SW 17 20 9 11 - - 0.0
26/06:30am 28.3 - - - - SW 17 20 9 11 - - 0.0
26/06:00am 28.1 - - - - SW 22 26 12 14 - - 0.0
26/05:30am 28.5 - - - - SW 20 24 11 13 - - 0.0
26/05:00am 28.3 - - - - WSW 24 30 13 16 - - 0.0
26/04:30am 28.7 - - - - WSW 20 22 11 12 - - 0.0
26/04:00am 28.6 - - - - WSW 20 24 11 13 - - 0.0
26/03:30am 28.7 - - - - WSW 22 26 12 14 - - 0.0
26/03:00am 28.7 - - - - WSW 20 24 11 13 - - 0.0
26/02:30am 28.9 - - - - WSW 20 24 11 13 - - 0.0
26/02:00am 28.8 - - - - WSW 20 26 11 14 - - 0.0
26/01:30am 28.8 - - - - WSW 24 28 13 15 - - 0.0
26/01:00am 28.8 - - - - WSW 19 22 10 12 - - 0.0
26/12:30am 28.9 - - - - WSW 17 20 9 11 - - 0.0
26/12:00am 29.0 - - - - WSW 19 20 10 11 - - 0.0
 
Date/Time
CST
Temp
°C
App
Temp
°C
Dew
Point
Rel
Hum
%
Delta-T
°C
Wind Press
QNH
hPa
Press
MSL
hPa
Rain
since 9 am
mm
Dir
 
Spd
km/h
Gust
km/h
Spd
kts
Gust
kts
25/11:30pm 29.0 - - - - WSW 17 22 9 12 - - 0.0
25/11:00pm 28.9 - - - - WSW 13 17 7 9 - - 0.0
25/10:30pm 29.0 - - - - WSW 13 17 7 9 - - 0.0
25/10:00pm 29.0 - - - - WSW 17 19 9 10 - - 0.0
25/09:30pm 29.0 - - - - WSW 19 20 10 11 - - 0.0
25/09:00pm 28.9 - - - - WSW 19 20 10 11 - - 0.0
25/08:30pm 29.1 - - - - WSW 22 26 12 14 - - 0.0
25/08:00pm 29.0 - - - - WSW 20 22 11 12 - - 0.0
25/07:30pm 29.1 - - - - WSW 15 19 8 10 - - 0.0
25/07:00pm 29.3 - - - - WSW 15 19 8 10 - - 0.0
25/06:30pm 29.4 - - - - WSW 15 17 8 9 - - 0.0
25/06:00pm 30.2 - - - - WSW 15 17 8 9 - - 0.0
25/05:30pm 30.8 - - - - WSW 15 19 8 10 - - 0.0
25/05:00pm 30.5 - - - - WSW 15 15 8 8 - - 0.0
25/04:30pm 30.7 - - - - WSW 17 19 9 10 - - 0.0
25/04:00pm 30.6 - - - - WSW 17 22 9 12 - - 0.0
25/03:30pm 31.4 - - - - WSW 15 17 8 9 - - 0.0
25/03:00pm 31.0 - - - - WSW 17 19 9 10 - - 0.0
25/02:30pm 31.1 - - - - WSW 17 19 9 10 - - 0.0
25/02:00pm 31.1 - - - - WSW 17 19 9 10 - - 0.0
25/01:30pm 30.7 - - - - WSW 19 20 10 11 - - 0.0
25/01:00pm 30.8 - - - - WSW 20 22 11 12 - - 0.0
25/12:30pm 30.9 - - - - WSW 19 20 10 11 - - 0.0
25/12:00pm 30.7 - - - - WSW 17 19 9 10 - - 0.0
25/11:30am 30.5 - - - - WSW 11 13 6 7 - - 0.0
25/11:00am 30.0 - - - - WSW 9 11 5 6 - - 0.0
25/10:30am 30.1 - - - - WSW 15 17 8 9 - - 0.0
25/10:00am 29.7 - - - - WSW 11 15 6 8 - - 0.0
25/09:30am 28.8 - - - - WSW 15 20 8 11 - - 0.0
25/09:00am 28.4 - - - - WSW 13 17 7 9 - - -
25/08:30am 27.9 - - - - WSW 11 15 6 8 - - -
25/08:00am 26.8 - - - - WSW 13 17 7 9 - - -
25/07:30am 25.8 - - - - WSW 7 11 4 6 - - -
25/07:00am 25.1 - - - - WSW 4 6 2 3 - - -
25/06:30am 25.0 - - - - WSW 4 6 2 3 - - -
25/06:00am 25.0 - - - - WSW 7 9 4 5 - - -
25/05:30am 25.2 - - - - WSW 6 9 3 5 - - -
25/05:00am 25.3 - - - - WSW 7 11 4 6 - - -
25/04:30am 25.5 - - - - WSW 11 15 6 8 - - -
25/04:00am 25.8 - - - - WSW 11 15 6 8 - - -
25/03:30am 26.1 - - - - WSW 13 19 7 10 - - -
25/03:00am 26.5 - - - - WSW 13 17 7 9 - - 0.0

Other Formats:

Comma delimited format used in spreadsheet applications
http://www.bom.gov.au/fwo/IDD60801/IDD60801.95146.axf

JavaScript Object Notation format (JSON) in row-major order
http://www.bom.gov.au/fwo/IDD60801/IDD60801.95146.json